Terminal Aerodrome Forecast
Issued by NWS Austin/San Antonio, TX

Home | Current Version | Previous Version | Text Only | Print | Product List | Glossary On
Versions: 1 2 3 4 5 6 7 8 9 10 11 12 13 14
000
FTUS44 KEWX 280534
TAFSAT
TAF
KSAT 280534Z 2806/2912 14010KT P6SM FEW015
     FM280800 17005KT P6SM BKN015
     FM281500 16010KT P6SM FEW025
     FM281800 14012KT P6SM FEW060
     FM290800 16005KT P6SM BKN015=

USA.gov is the U.S. government's official web portal to all federal, state and local government web resources and services.